Terminal Aerodrome Forecast
Issued by NWS Sioux Falls, SD

Home | Current Version | Previous Version | Text Only | Print | Product List | Glossary On
Versions: 1 2 3 4 5 6 7 8 9 10 11 12 13 14 15 16 17 18 19 20 21 22 23 24 25 26 27 28 29 30 31 32 33
323
FTUS43 KFSD 212320
TAFSUX
TAF
KSUX 212320Z 2200/2224 15012KT P6SM FEW250
     FM220300 14008KT P6SM FEW250
     FM221100 15010KT P6SM SCT250 WS015/17035KT
     FM221300 15013KT P6SM SCT200
     FM221600 16020G28KT P6SM SCT090
     FM222000 16022G30KT P6SM BKN050=

USA.gov is the U.S. government's official web portal to all federal, state and local government web resources and services.